createdAt,value
2023-01-11T00:02:27.438Z,3.50
2023-01-11T00:04:57.940Z,4.00
2023-01-11T00:07:28.288Z,4.00
2023-01-11T00:09:58.793Z,4.00
2023-01-11T00:12:30.574Z,6.00
2023-01-11T00:15:01.476Z,6.75
2023-01-11T00:17:32.008Z,0.00
2023-01-11T00:20:02.184Z,1.50
2023-01-11T00:22:34.389Z,3.25
2023-01-11T00:25:04.968Z,4.00
2023-01-11T00:27:36.984Z,1.00
2023-01-11T00:30:09.721Z,3.00
2023-01-11T00:32:41.532Z,3.50
2023-01-11T00:35:14.130Z,4.50
2023-01-11T00:37:44.573Z,1.00
2023-01-11T00:40:25.567Z,4.00
2023-01-11T00:42:56.373Z,2.50
2023-01-11T00:45:27.931Z,7.00
2023-01-11T00:47:59.493Z,6.00
2023-01-11T00:50:32.579Z,4.25
2023-01-11T00:53:08.197Z,9.25
2023-01-11T00:55:39.500Z,8.50
2023-01-11T00:58:11.136Z,4.50
2023-01-11T01:00:41.487Z,5.00
2023-01-11T01:03:11.888Z,4.00
2023-01-11T01:05:43.068Z,4.50
2023-01-11T01:08:14.133Z,3.00
2023-01-11T01:10:44.606Z,6.00
2023-01-11T01:13:14.786Z,4.00
2023-01-11T01:15:45.308Z,4.00
2023-01-11T01:18:16.252Z,4.50
2023-01-11T01:20:50.690Z,3.00
2023-01-11T01:23:21.040Z,8.50
2023-01-11T01:25:53.599Z,9.25
2023-01-11T01:28:25.249Z,6.25
2023-01-11T01:30:55.622Z,11.75
2023-01-11T01:33:29.636Z,6.75
2023-01-11T01:36:01.122Z,6.25
2023-01-11T01:38:31.992Z,5.00
2023-01-11T01:41:09.212Z,12.75
2023-01-11T01:46:43.464Z,13.75
2023-01-11T01:49:20.013Z,9.75
2023-01-11T01:51:53.310Z,6.25
2023-01-11T01:54:29.323Z,9.00
2023-01-11T01:57:05.404Z,6.75
2023-01-11T01:59:39.258Z,8.75
2023-01-11T02:02:11.952Z,6.00
2023-01-11T02:04:48.944Z,7.50
2023-01-11T02:07:24.659Z,5.00
2023-01-11T02:10:07.005Z,5.50
2023-01-11T02:12:40.590Z,1.00
2023-01-11T02:15:16.969Z,5.50
2023-01-11T02:18:01.868Z,6.75
2023-01-11T02:20:37.362Z,3.00
2023-01-11T02:23:13.601Z,1.50
2023-01-11T02:26:01.562Z,6.00
2023-01-11T02:28:55.759Z,6.25
2023-01-11T02:31:52.603Z,3.50
2023-01-11T02:34:25.869Z,6.00
2023-01-11T02:40:02.165Z,3.00
2023-01-11T02:42:53.385Z,4.00
2023-01-11T02:45:52.599Z,3.50
2023-01-11T02:48:48.400Z,4.50
2023-01-11T02:51:29.808Z,3.25
2023-01-11T02:54:08.813Z,3.00
2023-01-11T02:56:44.741Z,3.50
2023-01-11T02:59:18.089Z,2.50
2023-01-11T03:01:53.805Z,4.00
2023-01-11T03:04:35.252Z,3.00
2023-01-11T03:07:24.690Z,3.00
2023-01-11T03:10:15.944Z,1.00
2023-01-11T03:13:22.100Z,4.25
2023-01-11T03:16:10.397Z,4.50
2023-01-11T03:18:53.223Z,7.50
2023-01-11T03:21:38.905Z,3.25
2023-01-11T03:24:25.183Z,0.75
2023-01-11T03:30:20.793Z,110.25
2023-01-11T03:32:58.331Z,3.75
2023-01-11T03:35:51.242Z,3.00
2023-01-11T03:38:30.284Z,1.50
2023-01-11T03:41:03.453Z,6.25
2023-01-11T03:43:37.097Z,3.00
2023-01-11T03:46:33.841Z,2.50
2023-01-11T03:49:07.232Z,4.00
2023-01-11T03:51:40.715Z,1.00
2023-01-11T03:54:14.270Z,1.00
2023-01-11T03:57:07.999Z,6.00
2023-01-11T03:59:40.182Z,3.00
2023-01-11T04:05:04.184Z,3.00
2023-01-11T04:07:35.041Z,6.25
2023-01-11T04:10:07.514Z,5.00
2023-01-11T04:12:38.827Z,3.25
2023-01-11T04:15:10.447Z,2.00
2023-01-11T10:18:31.763Z,34.00
2023-01-11T10:20:36.260Z,3.00
2023-01-11T10:23:09.911Z,11.00
2023-01-11T10:25:53.891Z,21.00
2023-01-11T10:28:45.730Z,29.00
2023-01-11T10:31:22.141Z,31.00
2023-01-11T10:37:05.812Z,21.25
2023-01-11T10:40:09.870Z,11.75
2023-01-11T10:42:45.713Z,9.25
2023-01-11T10:45:24.989Z,9.25
2023-01-11T10:48:12.409Z,8.50
2023-01-11T10:51:06.422Z,7.00
2023-01-11T10:53:43.443Z,4.50
2023-01-11T10:59:19.035Z,3.50
2023-01-11T11:05:17.112Z,4.50
2023-01-11T11:08:06.829Z,4.50
2023-01-11T11:10:50.183Z,8.25
2023-01-11T11:13:29.550Z,16.75
2023-01-11T11:16:26.533Z,16.50
2023-01-11T11:19:00.208Z,13.00
2023-01-11T11:21:49.803Z,13.25
2023-01-11T11:24:49.268Z,19.75
2023-01-11T11:30:12.114Z,38.75
2023-01-11T11:32:52.058Z,50.50
2023-01-11T11:35:38.557Z,48.00
2023-01-11T11:41:14.041Z,49.25
2023-01-11T11:43:47.120Z,48.50
2023-01-11T11:46:20.638Z,51.25
2023-01-11T11:52:18.499Z,41.75
2023-01-11T11:54:57.699Z,33.75
2023-01-11T11:57:32.307Z,50.00
2023-01-11T12:00:14.472Z,34.25
2023-01-11T12:02:47.761Z,26.50
2023-01-11T12:05:18.373Z,10.50
2023-01-11T12:08:11.961Z,1.00
2023-01-11T12:10:51.777Z,1.00
2023-01-11T12:13:48.567Z,0.25
2023-01-11T12:16:23.491Z,3.00
2023-01-11T12:18:54.179Z,3.00
2023-01-11T12:21:27.453Z,3.75
2023-01-11T12:24:21.393Z,2.00
2023-01-11T12:27:18.838Z,3.25
2023-01-11T12:29:57.069Z,3.25
2023-01-11T12:32:48.248Z,39.50
2023-01-11T12:35:42.096Z,3.50
2023-01-11T12:38:33.409Z,3.50
2023-01-11T12:41:23.189Z,0.50
2023-01-11T12:44:05.384Z,11.25
2023-01-11T12:46:47.520Z,13.00
2023-01-11T12:49:37.295Z,9.75
2023-01-11T12:52:37.117Z,49.00
2023-01-11T12:55:30.668Z,66.75
2023-01-11T13:01:13.195Z,54.50
2023-01-11T13:04:16.491Z,54.25
2023-01-11T13:07:10.941Z,53.00
2023-01-11T13:10:11.455Z,56.75
2023-01-11T13:13:12.642Z,58.50
2023-01-11T13:16:09.585Z,74.50
2023-01-11T13:18:45.502Z,75.75
2023-01-11T13:21:31.798Z,85.50
2023-01-11T13:24:17.427Z,80.50
2023-01-11T13:26:50.531Z,86.00
2023-01-11T13:29:33.626Z,73.50
2023-01-11T17:17:02.993Z,33.25
2023-01-11T17:22:36.257Z,11.50
2023-01-11T17:25:09.948Z,0.00
2023-01-11T17:30:40.078Z,2.00
2023-01-11T17:33:13.574Z,0.00
2023-01-11T17:35:44.219Z,1.00
2023-01-11T17:38:17.815Z,2.50
2023-01-11T17:40:48.986Z,1.50
2023-01-11T17:43:28.156Z,9.00
2023-01-11T17:46:07.062Z,3.50
2023-01-11T17:48:42.307Z,9.00
2023-01-11T17:51:16.254Z,14.50
2023-01-11T17:53:49.724Z,12.75
2023-01-11T17:56:40.189Z,10.75
2023-01-11T17:59:25.682Z,15.75
2023-01-11T18:02:05.378Z,22.25
2023-01-11T18:04:42.936Z,23.50
2023-01-11T18:07:27.652Z,21.00
2023-01-11T18:10:06.481Z,23.00
2023-01-11T18:12:50.014Z,27.50
2023-01-11T18:15:25.451Z,31.00
2023-01-11T18:18:14.427Z,23.75
2023-01-11T18:20:35.186Z,30.75
2023-01-11T18:23:20.891Z,36.25
2023-01-11T18:25:54.178Z,34.50
2023-01-11T18:28:32.680Z,37.00
2023-01-11T18:31:03.273Z,34.25
2023-01-11T18:33:35.187Z,35.25
2023-01-11T18:36:08.576Z,29.50
2023-01-11T18:38:38.909Z,35.00
2023-01-11T18:41:11.979Z,33.50
2023-01-11T18:43:48.111Z,32.50
2023-01-11T18:46:28.524Z,39.00
2023-01-11T18:49:21.403Z,41.00
2023-01-11T18:52:01.252Z,45.00
2023-01-11T18:54:33.686Z,44.75
2023-01-11T18:57:03.995Z,47.25
2023-01-11T18:59:35.444Z,47.50
2023-01-11T19:02:17.321Z,49.25
2023-01-11T19:04:46.862Z,44.75
2023-01-11T19:07:18.002Z,45.75
2023-01-11T19:09:51.387Z,42.25
2023-01-11T19:12:23.226Z,42.00
2023-01-11T19:14:55.307Z,39.50
2023-01-11T19:17:25.922Z,42.25
2023-01-11T19:19:56.172Z,43.00
2023-01-11T19:22:26.926Z,41.75
2023-01-11T19:25:03.613Z,42.25
2023-01-11T19:27:35.953Z,44.00
2023-01-11T19:30:07.417Z,45.50
2023-01-11T19:32:38.967Z,46.00
2023-01-11T19:35:13.067Z,42.25
2023-01-11T19:37:43.641Z,32.50
2023-01-11T19:40:14.262Z,19.00
2023-01-11T19:42:48.365Z,24.50
2023-01-11T19:45:18.925Z,25.75
2023-01-11T19:47:49.345Z,15.00
2023-01-11T19:50:19.698Z,10.75
2023-01-11T19:52:53.001Z,10.75
2023-01-11T19:55:23.826Z,1.00
2023-01-11T19:57:57.420Z,4.25
2023-01-11T20:00:30.617Z,18.25
2023-01-11T20:03:02.444Z,42.75
2023-01-11T20:05:33.875Z,47.75
2023-01-11T20:08:08.177Z,45.50
2023-01-11T20:10:38.957Z,49.25
2023-01-11T20:13:11.175Z,48.50
2023-01-11T20:15:43.170Z,47.75
2023-01-11T20:18:13.936Z,49.75
2023-01-11T20:20:44.467Z,50.00
2023-01-11T20:23:15.797Z,48.50
2023-01-11T20:25:46.209Z,51.50
2023-01-11T20:28:18.446Z,50.25
2023-01-11T20:30:49.145Z,48.50
2023-01-11T20:33:19.669Z,49.50
2023-01-11T20:35:50.239Z,52.00
2023-01-11T20:38:20.862Z,55.75
2023-01-11T20:40:51.335Z,60.00
2023-01-11T20:43:24.702Z,67.75
2023-01-11T20:45:59.581Z,68.00
2023-01-11T20:48:30.148Z,71.75
2023-01-11T20:51:01.366Z,64.50
2023-01-11T20:53:33.560Z,67.75
2023-01-11T20:56:06.039Z,66.00
2023-01-11T20:58:42.665Z,57.00
2023-01-11T21:01:19.018Z,56.00
2023-01-11T21:03:53.509Z,57.00
2023-01-11T21:06:33.833Z,48.50
2023-01-11T21:09:02.564Z,53.25
2023-01-11T21:11:42.351Z,49.50
2023-01-11T21:14:24.843Z,48.50
2023-01-11T21:17:14.407Z,48.25
2023-01-11T21:19:41.040Z,50.50
2023-01-11T21:22:12.011Z,65.50
2023-01-11T21:24:45.690Z,65.25
2023-01-11T21:27:15.956Z,55.50
2023-01-11T21:29:47.777Z,59.00
2023-01-11T21:32:18.392Z,65.75
2023-01-11T21:35:15.111Z,69.50
2023-01-11T21:38:02.237Z,76.50
2023-01-11T21:40:37.763Z,59.00
2023-01-11T21:43:10.796Z,49.00
2023-01-11T21:45:41.811Z,43.75
2023-01-11T21:48:12.015Z,29.50
2023-01-11T21:50:45.312Z,5.50
2023-01-11T21:53:16.829Z,9.00
2023-01-11T21:55:47.546Z,3.00
2023-01-11T21:58:18.593Z,3.50
2023-01-11T22:00:56.095Z,6.75
2023-01-11T22:03:32.659Z,1.00
2023-01-11T22:06:04.839Z,4.00
2023-01-11T22:08:39.569Z,3.00
2023-01-11T22:11:11.240Z,4.50
2023-01-11T22:13:44.340Z,1.00
2023-01-11T22:16:17.122Z,2.00
2023-01-11T22:18:47.623Z,5.75
